Anderson Regional Airport
KAND : now visible

Airfield :











YOU CAN JOIN US ON...

 
LOGIN :

Register | Disclaimer

   EN    FR    IT 

 









Legend :    VFR   Marginal VFR   IFR   Intensive IFR   Very Intensive IFR
Visi :
Ceiling :
>= 8 km
>= 3000ft
5 to 8 km
1000 to 3000 ft
1500m to 5 km
500 to 1000 ft
800 to 1500m
200 to 500 ft
< 800m
< 200 ft
Symbols :   Thunderstorms  Fog  Heavy snow  Heavy precipitations  Wind > 20 kt






- Airport Elevation : 782 ft


KAND - Anderson Regional

CURRENT METAR :
  • 041956Z AUTO 25010G16KT 10SM CLR 32/19 A2996 RMK AO2 SLP136 T03170189

EXPIRED METARs :
  • 041856Z AUTO 19007G16KT 10SM CLR 31/19 A2997 RMK AO2 SLP139 T03060194
  • 041756Z AUTO 24008KT 10SM CLR 30/20 A2999 RMK AO2 SLP143 T03000200 10300 20200 58005

TAF KAND
Valid from the 04 at 18:00 until the 05 at 18:00 UTC


041730Z 0418/0518 32005KT P6SM FEW040
FM042000 24007KT P6SM VCSH SCT050
FM050300 05003KT P6SM SCT200
FM051400 09003KT P6SM FEW045
KZTL FIR / North America



MET'MAP, your aeronautical weather chart ! - Copyright ORBIFLY December 2007 - Disclaimer

ORBIFLY MET'MAP TEAM :

Programming & Development : Alexandra Zaïnal
Concept & original design : Baudouin d'Aumeries
Assistance for programming : Marc-Olivier Méhu
Technical & hardware support : Manuel Goepfert

Contact : metmap@orbifly.com




SOURCES & CREDITS :

   NOAA       Earth
Advisory